createdAt,value
2023-04-25T00:00:15.683Z,987.20
2023-04-25T00:01:15.642Z,987.21
2023-04-25T00:02:15.710Z,987.25
2023-04-25T00:03:15.735Z,987.22
2023-04-25T00:04:15.886Z,987.16
2023-04-25T00:05:15.703Z,987.20
2023-04-25T00:06:15.619Z,987.22
2023-04-25T00:07:15.591Z,987.24
2023-04-25T00:08:15.586Z,987.23
2023-04-25T00:09:15.589Z,987.24
2023-04-25T00:10:15.606Z,987.24
2023-04-25T00:11:15.576Z,987.23
2023-04-25T00:12:15.551Z,987.27
2023-04-25T00:13:15.546Z,987.21
2023-04-25T00:14:15.541Z,987.21
2023-04-25T00:15:15.565Z,987.16
2023-04-25T00:16:15.576Z,987.20
2023-04-25T00:17:15.518Z,987.37
2023-04-25T00:18:15.555Z,987.24
2023-04-25T00:19:15.512Z,987.31
2023-04-25T00:20:15.532Z,987.28
2023-04-25T00:21:15.495Z,987.18
2023-04-25T00:22:15.478Z,987.27
2023-04-25T00:23:15.475Z,987.25
2023-04-25T00:24:15.458Z,987.27
2023-04-25T00:25:15.479Z,987.28
2023-04-25T00:26:15.474Z,987.29
2023-04-25T00:27:15.436Z,987.23
2023-04-25T00:28:15.429Z,987.30
2023-04-25T00:29:15.427Z,987.32
2023-04-25T00:30:15.437Z,987.31
2023-04-25T00:31:15.416Z,987.34
2023-04-25T00:32:15.393Z,987.34
2023-04-25T00:33:15.407Z,987.37
2023-04-25T00:34:15.373Z,987.33
2023-04-25T00:35:15.399Z,987.37
2023-04-25T00:36:15.377Z,987.36
2023-04-25T00:37:15.370Z,987.34
2023-04-25T00:38:15.344Z,987.33
2023-04-25T00:39:15.349Z,987.31
2023-04-25T00:40:15.374Z,987.35
2023-04-25T00:41:15.330Z,987.30
2023-04-25T00:42:15.312Z,987.31
2023-04-25T00:43:15.332Z,987.30
2023-04-25T00:44:15.308Z,987.30
2023-04-25T00:45:15.329Z,987.34
2023-04-25T00:46:15.330Z,987.26
2023-04-25T00:47:15.301Z,987.28
2023-04-25T00:48:15.287Z,987.39
2023-04-25T00:49:15.266Z,987.33
2023-04-25T00:50:15.278Z,987.34
2023-04-25T00:51:15.256Z,987.28
2023-04-25T00:52:15.251Z,987.27
2023-04-25T00:53:15.233Z,987.25
2023-04-25T00:54:15.230Z,987.25
2023-04-25T00:55:15.263Z,987.25
2023-04-25T00:56:16.210Z,987.21
2023-04-25T00:57:15.192Z,987.23
2023-04-25T00:58:15.188Z,987.16
2023-04-25T00:59:15.176Z,987.12
2023-04-25T01:00:15.208Z,987.28
2023-04-25T01:01:15.279Z,987.24
2023-04-25T01:02:15.187Z,987.23
2023-04-25T01:03:15.208Z,987.27
2023-04-25T01:04:15.388Z,987.23
2023-04-25T01:05:15.137Z,987.24
2023-04-25T01:06:15.165Z,987.25
2023-04-25T01:07:15.155Z,987.26
2023-04-25T01:08:15.122Z,987.26
2023-04-25T01:09:15.130Z,987.33
2023-04-25T01:10:15.096Z,987.28
2023-04-25T01:11:15.140Z,987.28
2023-04-25T01:12:15.134Z,987.29
2023-04-25T01:13:15.077Z,987.30
2023-04-25T01:14:15.068Z,987.30
2023-04-25T01:15:15.101Z,987.27
2023-04-25T01:16:15.068Z,987.29
2023-04-25T01:17:15.052Z,987.32
2023-04-25T01:18:15.039Z,987.34
2023-04-25T01:19:15.041Z,987.38
2023-04-25T01:20:15.056Z,987.33
2023-04-25T01:21:15.051Z,987.30
2023-04-25T01:22:15.010Z,987.29
2023-04-25T01:23:14.999Z,987.29
2023-04-25T01:24:15.008Z,987.35
2023-04-25T01:25:15.028Z,987.26
2023-04-25T01:26:14.969Z,987.24
2023-04-25T01:27:14.994Z,987.26
2023-04-25T01:28:14.971Z,987.19
2023-04-25T01:29:14.962Z,987.27
2023-04-25T01:30:14.955Z,987.23
2023-04-25T01:31:14.955Z,987.23
2023-04-25T01:32:14.979Z,987.23
2023-04-25T01:33:14.934Z,987.22
2023-04-25T01:34:14.943Z,987.27
2023-04-25T01:35:14.914Z,987.31
2023-04-25T01:36:14.932Z,987.21
2023-04-25T01:37:14.916Z,987.26
2023-04-25T01:38:14.883Z,987.32
2023-04-25T01:39:14.868Z,987.28
2023-04-25T01:40:14.878Z,987.33
2023-04-25T01:41:14.884Z,987.29
2023-04-25T01:42:14.851Z,987.27
2023-04-25T01:43:14.858Z,987.28
2023-04-25T01:44:14.841Z,987.30
2023-04-25T01:45:14.836Z,987.26
2023-04-25T01:46:14.932Z,987.24
2023-04-25T01:47:15.810Z,987.21
2023-04-25T01:48:14.815Z,987.19
2023-04-25T01:49:14.819Z,987.32
2023-04-25T01:50:14.790Z,987.29
2023-04-25T01:51:14.823Z,987.31
2023-04-25T01:52:14.772Z,987.37
2023-04-25T01:53:14.769Z,987.40
2023-04-25T01:54:14.763Z,987.38
2023-04-25T01:55:14.772Z,987.45
2023-04-25T01:56:14.782Z,987.36
2023-04-25T01:57:14.746Z,987.42
2023-04-25T01:58:14.728Z,987.42
2023-04-25T01:59:14.732Z,987.45
2023-04-25T02:00:14.733Z,987.46
2023-04-25T02:01:14.756Z,987.43
2023-04-25T02:02:14.805Z,987.39
2023-04-25T02:03:14.835Z,987.47
2023-04-25T02:04:14.820Z,987.47
2023-04-25T02:05:14.681Z,987.39
2023-04-25T02:06:14.684Z,987.43
2023-04-25T02:07:14.653Z,987.49
2023-04-25T02:08:14.650Z,987.50
2023-04-25T02:09:14.640Z,987.48
2023-04-25T02:10:14.633Z,987.51
2023-04-25T02:11:14.689Z,987.45
2023-04-25T02:12:14.619Z,987.45
2023-04-25T02:13:14.626Z,987.43
2023-04-25T02:14:14.601Z,987.40
2023-04-25T02:15:14.598Z,987.48
2023-04-25T02:16:14.695Z,987.41
2023-04-25T02:17:14.656Z,987.37
2023-04-25T02:18:14.624Z,987.38
2023-04-25T02:19:14.574Z,987.31
2023-04-25T02:20:14.566Z,987.41
2023-04-25T02:21:14.617Z,987.43
2023-04-25T02:22:14.550Z,987.36
2023-04-25T02:23:14.550Z,987.32
2023-04-25T02:24:14.536Z,987.30
2023-04-25T02:25:14.537Z,987.36
2023-04-25T02:26:14.576Z,987.30
2023-04-25T02:27:14.509Z,987.28
2023-04-25T02:28:14.505Z,987.35
2023-04-25T02:29:14.495Z,987.25
2023-04-25T02:30:14.490Z,987.33
2023-04-25T02:31:14.539Z,987.28
2023-04-25T02:32:14.467Z,987.26
2023-04-25T02:33:14.459Z,987.27
2023-04-25T02:34:14.452Z,987.28
2023-04-25T02:35:14.447Z,987.18
2023-04-25T02:36:14.473Z,987.26
2023-04-25T02:37:14.433Z,987.26
2023-04-25T02:38:14.419Z,987.32
2023-04-25T02:39:14.442Z,987.27
2023-04-25T02:40:14.414Z,987.27
2023-04-25T02:41:14.433Z,987.27
2023-04-25T02:42:14.396Z,987.26
2023-04-25T02:43:14.386Z,987.23
2023-04-25T02:44:14.378Z,987.18
2023-04-25T02:45:14.371Z,987.28
2023-04-25T02:46:14.423Z,987.26
2023-04-25T02:47:14.380Z,987.31
2023-04-25T02:48:14.382Z,987.35
2023-04-25T02:49:14.343Z,987.29
2023-04-25T02:50:14.341Z,987.28
2023-04-25T02:51:14.350Z,987.27
2023-04-25T02:52:14.317Z,987.19
2023-04-25T02:53:14.305Z,987.21
2023-04-25T02:54:14.305Z,987.12
2023-04-25T02:55:14.309Z,987.18
2023-04-25T02:56:14.338Z,987.17
2023-04-25T02:57:14.273Z,987.14
2023-04-25T02:58:14.266Z,987.15
2023-04-25T02:59:14.276Z,987.15
2023-04-25T03:00:14.258Z,987.15
2023-04-25T03:01:14.283Z,987.15
2023-04-25T03:02:14.265Z,987.18
2023-04-25T03:03:14.355Z,987.18
2023-04-25T03:04:14.245Z,987.16
2023-04-25T03:05:14.216Z,987.23
2023-04-25T03:06:14.233Z,987.18
2023-04-25T03:07:14.222Z,987.24
2023-04-25T03:08:14.215Z,987.28
2023-04-25T03:09:14.195Z,987.29
2023-04-25T03:10:14.184Z,987.29
2023-04-25T03:11:14.203Z,987.33
2023-04-25T03:12:14.155Z,987.25
2023-04-25T03:13:14.156Z,987.27
2023-04-25T03:14:14.149Z,987.29
2023-04-25T03:15:14.140Z,987.24
2023-04-25T03:16:14.190Z,987.24
2023-04-25T03:17:14.122Z,987.23
2023-04-25T03:18:14.127Z,987.18
2023-04-25T03:19:14.112Z,987.19
2023-04-25T03:20:14.112Z,987.23
2023-04-25T03:21:14.118Z,987.17
2023-04-25T03:22:14.083Z,987.19
2023-04-25T03:23:14.086Z,987.19
2023-04-25T03:24:14.077Z,987.23
2023-04-25T03:25:14.068Z,987.24
2023-04-25T03:26:14.082Z,987.25
2023-04-25T03:27:14.044Z,987.24
2023-04-25T03:28:14.036Z,987.23
2023-04-25T03:29:14.028Z,987.14
2023-04-25T03:30:14.044Z,987.21
2023-04-25T03:31:14.036Z,987.29
2023-04-25T03:32:14.117Z,987.22
2023-04-25T03:33:14.004Z,987.23
2023-04-25T03:34:13.988Z,987.31
2023-04-25T03:35:14.015Z,987.28
2023-04-25T03:36:14.022Z,987.25
2023-04-25T03:37:13.965Z,987.23
2023-04-25T03:38:13.955Z,987.31
2023-04-25T03:39:13.957Z,987.32
2023-04-25T03:40:13.948Z,987.36
2023-04-25T03:41:14.006Z,987.40
2023-04-25T03:42:13.972Z,987.38
2023-04-25T03:43:13.913Z,987.39
2023-04-25T03:44:13.911Z,987.38
2023-04-25T03:45:13.934Z,987.40
2023-04-25T03:46:13.946Z,987.37
2023-04-25T03:47:13.912Z,987.35
2023-04-25T03:48:13.885Z,987.36
2023-04-25T03:49:13.877Z,987.41
2023-04-25T03:50:13.860Z,987.38
2023-04-25T03:51:13.887Z,987.33
2023-04-25T03:52:13.894Z,987.40
2023-04-25T03:53:13.834Z,987.44
2023-04-25T03:54:13.824Z,987.44
2023-04-25T03:55:14.825Z,987.45
2023-04-25T03:56:13.817Z,987.48
2023-04-25T03:57:13.838Z,987.44
2023-04-25T03:58:13.808Z,987.44
2023-04-25T03:59:13.805Z,987.50
2023-04-25T04:00:13.791Z,987.51
2023-04-25T04:01:13.795Z,987.52
2023-04-25T04:02:13.865Z,987.48
2023-04-25T04:03:13.920Z,987.48
2023-04-25T04:04:14.198Z,987.57
2023-04-25T04:05:14.016Z,987.48
2023-04-25T04:06:13.740Z,987.60
2023-04-25T04:07:13.771Z,987.61
2023-04-25T04:08:13.726Z,987.65
2023-04-25T04:09:13.719Z,987.61
2023-04-25T04:10:13.754Z,987.52
2023-04-25T04:11:13.705Z,987.54
2023-04-25T04:12:13.738Z,987.55
2023-04-25T04:13:13.785Z,987.57
2023-04-25T04:14:13.686Z,987.66
2023-04-25T04:15:13.681Z,987.56
2023-04-25T04:16:13.730Z,987.59
2023-04-25T04:17:13.690Z,987.55
2023-04-25T04:18:13.661Z,987.66
2023-04-25T04:19:13.650Z,987.66
2023-04-25T04:20:13.647Z,987.66
2023-04-25T04:21:13.631Z,987.69
2023-04-25T04:22:13.655Z,987.71
2023-04-25T04:23:13.631Z,987.65
2023-04-25T04:24:13.610Z,987.61
2023-04-25T04:25:13.613Z,987.56
2023-04-25T04:26:13.618Z,987.60
2023-04-25T04:27:13.587Z,987.58
2023-04-25T04:28:13.580Z,987.61
2023-04-25T04:29:13.580Z,987.63
2023-04-25T04:30:13.566Z,987.62
2023-04-25T04:31:13.616Z,987.57
2023-04-25T04:32:13.547Z,987.72
2023-04-25T04:33:13.572Z,987.68
2023-04-25T04:34:13.526Z,987.69
2023-04-25T04:35:13.526Z,987.66
2023-04-25T04:36:13.571Z,987.67
2023-04-25T04:37:13.513Z,987.73
2023-04-25T04:38:13.521Z,987.80
2023-04-25T04:39:13.499Z,987.85
2023-04-25T04:40:13.499Z,987.83
2023-04-25T04:41:13.480Z,987.88
2023-04-25T04:42:13.515Z,987.85
2023-04-25T04:43:13.469Z,987.89
2023-04-25T04:44:13.504Z,987.89
2023-04-25T04:45:13.456Z,987.92
2023-04-25T04:46:13.457Z,987.92
2023-04-25T04:47:13.467Z,987.94
2023-04-25T04:48:13.505Z,987.89
2023-04-25T04:49:13.439Z,987.92
2023-04-25T04:50:13.428Z,987.89
2023-04-25T04:51:13.409Z,987.94
2023-04-25T04:52:13.434Z,987.91
2023-04-25T04:53:13.403Z,987.83
2023-04-25T04:54:13.397Z,987.88
2023-04-25T04:55:13.386Z,987.82
2023-04-25T04:56:13.377Z,987.84
2023-04-25T04:57:13.390Z,987.82
2023-04-25T04:58:13.358Z,987.92
2023-04-25T04:59:13.348Z,987.89
2023-04-25T05:00:13.340Z,987.88
2023-04-25T05:01:14.379Z,987.88
2023-04-25T05:02:13.468Z,987.94
2023-04-25T05:03:13.451Z,987.95
2023-04-25T05:04:13.416Z,987.91
2023-04-25T05:05:13.294Z,987.88
2023-04-25T05:06:13.303Z,987.90
2023-04-25T05:07:13.318Z,987.92
2023-04-25T05:08:13.276Z,987.92
2023-04-25T05:09:13.272Z,987.87
2023-04-25T05:10:13.274Z,987.94
2023-04-25T05:11:13.254Z,987.99
2023-04-25T05:12:13.267Z,988.00
2023-04-25T05:13:13.230Z,988.02
2023-04-25T05:14:13.225Z,987.97
2023-04-25T05:15:13.218Z,987.99
2023-04-25T05:16:13.228Z,988.02
2023-04-25T05:17:13.226Z,988.01
2023-04-25T05:18:13.337Z,987.94
2023-04-25T05:19:13.194Z,987.95
2023-04-25T05:20:13.184Z,987.89
2023-04-25T05:21:13.183Z,988.00
2023-04-25T05:22:13.197Z,987.91
2023-04-25T05:23:13.165Z,987.96
2023-04-25T05:24:45.809Z,987.95
2023-04-25T05:25:13.144Z,988.02
2023-04-25T05:26:13.135Z,987.97
2023-04-25T05:27:13.158Z,988.02
2023-04-25T05:28:13.148Z,988.05
2023-04-25T05:29:13.114Z,988.01
2023-04-25T05:30:13.102Z,988.08
2023-04-25T05:31:13.108Z,988.12
2023-04-25T05:32:13.188Z,988.05
2023-04-25T05:33:13.154Z,988.10
2023-04-25T05:34:13.093Z,988.08
2023-04-25T05:35:14.100Z,988.03
2023-04-25T05:36:13.087Z,988.05
2023-04-25T05:37:13.082Z,988.09
2023-04-25T05:38:13.068Z,988.06
2023-04-25T05:39:13.133Z,988.12
2023-04-25T05:40:13.038Z,988.11
2023-04-25T05:41:13.555Z,988.08
2023-04-25T05:42:13.046Z,988.14
2023-04-25T05:43:13.014Z,988.13
2023-04-25T05:44:13.008Z,988.19
2023-04-25T05:45:13.003Z,988.12
2023-04-25T05:46:13.079Z,988.23
2023-04-25T05:47:13.001Z,988.18
2023-04-25T05:48:13.028Z,988.22
2023-04-25T05:49:12.961Z,988.15
2023-04-25T05:50:12.960Z,988.20
2023-04-25T05:51:12.952Z,988.21
2023-04-25T05:52:12.977Z,988.20
2023-04-25T05:53:12.949Z,988.26
2023-04-25T05:54:12.933Z,988.25
2023-04-25T05:55:12.925Z,988.26
2023-04-25T05:56:12.982Z,988.33
2023-04-25T05:57:12.924Z,988.26
2023-04-25T05:58:12.893Z,988.19
2023-04-25T05:59:12.883Z,988.23
2023-04-25T06:00:12.908Z,988.24
2023-04-25T06:01:12.907Z,988.27
2023-04-25T06:02:12.943Z,988.23
2023-04-25T06:03:13.008Z,988.22
2023-04-25T06:04:13.260Z,988.30
2023-04-25T06:05:13.053Z,988.26
2023-04-25T06:06:12.834Z,988.33
2023-04-25T06:07:12.853Z,988.37
2023-04-25T06:08:12.828Z,988.30
2023-04-25T06:09:14.395Z,988.33
2023-04-25T06:10:13.808Z,988.34
2023-04-25T06:11:12.800Z,988.29
2023-04-25T06:12:12.808Z,988.31
2023-04-25T06:13:12.780Z,988.37
2023-04-25T06:14:12.776Z,988.35
2023-04-25T06:15:24.280Z,988.38
2023-04-25T06:16:14.798Z,988.42
2023-04-25T06:17:12.784Z,988.36
2023-04-25T06:18:12.756Z,988.33
2023-04-25T06:19:12.731Z,988.34
2023-04-25T06:20:12.732Z,988.38
2023-04-25T06:21:12.726Z,988.35
2023-04-25T06:22:12.795Z,988.31
2023-04-25T06:23:12.741Z,988.27
2023-04-25T06:24:12.699Z,988.30
2023-04-25T06:25:12.738Z,988.35
2023-04-25T06:26:12.675Z,988.38
2023-04-25T06:27:13.165Z,988.36
2023-04-25T06:28:12.690Z,988.35
2023-04-25T06:29:12.651Z,988.32
2023-04-25T06:30:12.660Z,988.40
2023-04-25T06:31:12.681Z,988.36
2023-04-25T06:32:12.654Z,988.37
2023-04-25T06:33:12.662Z,988.39
2023-04-25T06:34:12.623Z,988.32
2023-04-25T06:35:12.611Z,988.47
2023-04-25T06:36:12.590Z,988.43
2023-04-25T06:37:13.664Z,988.43
2023-04-25T06:38:12.594Z,988.41
2023-04-25T06:39:12.591Z,988.45
2023-04-25T06:40:12.576Z,988.40
2023-04-25T06:41:12.582Z,988.46
2023-04-25T06:42:12.587Z,988.51
2023-04-25T06:43:12.560Z,988.46
2023-04-25T06:44:12.547Z,988.50
2023-04-25T06:45:13.543Z,988.50
2023-04-25T06:46:12.591Z,988.51
2023-04-25T06:47:12.555Z,988.52
2023-04-25T06:48:12.521Z,988.48
2023-04-25T06:49:12.508Z,988.51
2023-04-25T06:50:12.702Z,988.55
2023-04-25T06:51:12.512Z,988.55
2023-04-25T06:52:12.512Z,988.55
2023-04-25T06:53:12.501Z,988.57
2023-04-25T06:54:12.478Z,988.64
2023-04-25T06:55:12.489Z,988.60
2023-04-25T06:56:12.462Z,988.62
2023-04-25T06:57:12.488Z,988.61
2023-04-25T06:58:12.441Z,988.68
2023-04-25T06:59:12.435Z,988.62
2023-04-25T07:00:12.423Z,988.66
2023-04-25T07:01:12.430Z,988.64
2023-04-25T07:02:12.482Z,988.59
2023-04-25T07:03:12.490Z,988.60
2023-04-25T07:04:12.630Z,988.63
2023-04-25T07:05:12.401Z,988.65
2023-04-25T07:06:12.381Z,988.64
2023-04-25T07:07:12.398Z,988.64
2023-04-25T07:08:12.361Z,988.65
2023-04-25T07:09:12.358Z,988.71
2023-04-25T07:10:12.350Z,988.68
2023-04-25T07:11:12.349Z,988.69
2023-04-25T07:12:12.355Z,988.67
2023-04-25T07:13:12.329Z,988.60
2023-04-25T07:14:12.325Z,988.67
2023-04-25T07:15:12.308Z,988.74
2023-04-25T07:16:12.379Z,988.65
2023-04-25T07:17:12.330Z,988.74
2023-04-25T07:18:12.349Z,988.70
2023-04-25T07:19:12.292Z,988.77
2023-04-25T07:20:12.287Z,988.78
2023-04-25T07:21:12.275Z,988.81
2023-04-25T07:22:12.340Z,988.84
2023-04-25T07:23:12.317Z,988.83
2023-04-25T07:24:12.271Z,988.80
2023-04-25T07:25:12.226Z,988.76
2023-04-25T07:26:12.225Z,988.74
2023-04-25T07:27:12.245Z,988.76
2023-04-25T07:28:12.219Z,988.61
2023-04-25T07:29:12.204Z,988.81
2023-04-25T07:30:12.193Z,988.82
2023-04-25T07:31:12.189Z,988.89
2023-04-25T07:32:12.277Z,988.86
2023-04-25T07:33:12.293Z,988.88
2023-04-25T07:34:12.233Z,988.93
2023-04-25T07:35:12.167Z,989.00
2023-04-25T07:36:12.160Z,989.01
2023-04-25T07:37:12.178Z,989.00
2023-04-25T07:38:12.137Z,989.01
2023-04-25T07:39:12.131Z,988.97
2023-04-25T07:40:12.136Z,988.97
2023-04-25T07:41:12.124Z,989.04
2023-04-25T07:42:12.122Z,988.94
2023-04-25T07:43:12.095Z,989.03
2023-04-25T07:44:12.094Z,989.10
2023-04-25T07:45:12.083Z,988.98
2023-04-25T07:46:12.100Z,989.02
2023-04-25T07:47:12.090Z,989.05
2023-04-25T07:48:12.073Z,989.11
2023-04-25T07:49:12.057Z,989.08
2023-04-25T07:50:12.046Z,989.10
2023-04-25T07:51:12.041Z,989.12
2023-04-25T07:52:12.052Z,989.10
2023-04-25T07:53:12.013Z,989.16
2023-04-25T07:54:12.050Z,989.06
2023-04-25T07:55:12.005Z,989.10
2023-04-25T07:56:12.001Z,989.08
2023-04-25T07:57:12.032Z,989.09
2023-04-25T07:58:12.096Z,989.14
2023-04-25T07:59:11.966Z,989.04
2023-04-25T08:00:11.961Z,989.09
2023-04-25T08:01:11.949Z,989.16
2023-04-25T08:02:13.031Z,989.12
2023-04-25T08:03:12.177Z,989.12
2023-04-25T08:04:12.064Z,989.22
2023-04-25T08:05:12.036Z,989.15
2023-04-25T08:06:12.389Z,989.19
2023-04-25T08:07:11.944Z,989.23
2023-04-25T08:08:11.904Z,989.24
2023-04-25T08:09:11.900Z,989.27
2023-04-25T08:10:11.915Z,989.26
2023-04-25T08:11:11.890Z,989.38
2023-04-25T08:12:11.909Z,989.32
2023-04-25T08:13:11.876Z,989.29
2023-04-25T08:14:11.857Z,989.36
2023-04-25T08:15:11.859Z,989.22
2023-04-25T08:16:11.860Z,989.30
2023-04-25T08:17:11.938Z,989.26
2023-04-25T08:18:11.870Z,989.35
2023-04-25T08:19:11.866Z,989.30
2023-04-25T08:20:11.834Z,989.34
2023-04-25T08:21:11.812Z,989.31
2023-04-25T08:22:11.816Z,989.38
2023-04-25T08:23:11.806Z,989.32
2023-04-25T08:24:11.794Z,989.41
2023-04-25T08:25:11.783Z,989.40
2023-04-25T08:26:11.769Z,989.41
2023-04-25T08:27:11.786Z,989.45
2023-04-25T08:28:11.750Z,989.40
2023-04-25T08:29:11.748Z,989.44
2023-04-25T08:30:11.738Z,989.43
2023-04-25T08:31:11.764Z,989.49
2023-04-25T08:32:11.746Z,989.44
2023-04-25T08:34:11.705Z,989.39
2023-04-25T08:35:11.701Z,989.46
2023-04-25T08:36:11.700Z,989.41
2023-04-25T08:37:11.729Z,989.40
2023-04-25T08:38:11.686Z,989.49
2023-04-25T08:39:11.700Z,989.47
2023-04-25T08:40:11.661Z,989.44
2023-04-25T08:41:11.647Z,989.51
2023-04-25T08:42:11.671Z,989.53
2023-04-25T08:43:11.669Z,989.50
2023-04-25T08:44:11.687Z,989.56
2023-04-25T08:45:11.629Z,989.47
2023-04-25T08:46:11.614Z,989.46
2023-04-25T08:47:11.769Z,989.51
2023-04-25T08:48:11.648Z,989.55
2023-04-25T08:49:11.580Z,989.56
2023-04-25T08:50:11.599Z,989.53
2023-04-25T08:51:11.815Z,989.54
2023-04-25T08:52:11.560Z,989.55
2023-04-25T08:53:11.571Z,989.61
2023-04-25T08:55:13.571Z,989.71
2023-04-25T08:56:11.526Z,989.69
2023-04-25T08:57:11.566Z,989.66
2023-04-25T08:58:11.544Z,989.73
2023-04-25T08:59:11.557Z,989.68
2023-04-25T09:00:11.516Z,989.67
2023-04-25T09:01:11.541Z,989.64
2023-04-25T09:02:11.598Z,989.65
2023-04-25T09:03:11.753Z,989.74
2023-04-25T09:04:11.566Z,989.71
2023-04-25T09:05:11.456Z,989.69
2023-04-25T09:06:11.447Z,989.74
2023-04-25T09:07:11.447Z,989.77
2023-04-25T09:08:11.526Z,989.66
2023-04-25T09:09:11.421Z,989.69
2023-04-25T09:10:11.431Z,989.67
2023-04-25T09:10:29.041Z,989.67
2023-04-25T09:11:11.411Z,989.65
2023-04-25T09:12:11.414Z,989.68
2023-04-25T09:13:11.463Z,989.66
2023-04-25T09:14:11.420Z,989.76
2023-04-25T09:15:11.450Z,989.77
2023-04-25T09:16:11.386Z,989.80
2023-04-25T09:17:11.414Z,989.73
2023-04-25T09:18:11.429Z,989.75
2023-04-25T09:19:11.354Z,989.74
2023-04-25T09:20:11.362Z,989.85
2023-04-25T09:21:14.402Z,989.78
2023-04-25T09:22:12.326Z,989.80
2023-04-25T09:23:11.371Z,989.71
2023-04-25T09:24:11.406Z,989.85
2023-04-25T09:25:11.322Z,989.84
2023-04-25T09:26:11.305Z,989.89
2023-04-25T09:27:11.292Z,989.86
2023-04-25T09:28:11.314Z,989.86
2023-04-25T09:29:11.284Z,989.93
2023-04-25T09:30:11.267Z,989.92
2023-04-25T09:31:11.275Z,989.91
2023-04-25T09:32:11.311Z,990.02
2023-04-25T09:33:11.350Z,989.95
2023-04-25T09:34:11.232Z,990.01
2023-04-25T09:35:11.228Z,990.07
2023-04-25T09:36:11.219Z,990.09
2023-04-25T09:37:11.252Z,990.09
2023-04-25T09:38:11.207Z,990.08
2023-04-25T09:39:11.218Z,990.07
2023-04-25T09:40:11.192Z,990.16
2023-04-25T09:41:11.178Z,990.10
2023-04-25T09:42:11.188Z,990.12
2023-04-25T09:43:11.196Z,990.12
2023-04-25T09:44:11.167Z,990.14
2023-04-25T09:45:11.225Z,990.11
2023-04-25T09:46:11.210Z,990.15
2023-04-25T09:47:11.171Z,990.24
2023-04-25T09:48:11.160Z,990.11
2023-04-25T09:49:11.136Z,990.20
2023-04-25T09:50:11.107Z,990.19
2023-04-25T09:51:11.103Z,990.21
2023-04-25T09:52:11.122Z,990.16
2023-04-25T09:53:11.093Z,990.17
2023-04-25T09:54:11.092Z,990.15
2023-04-25T09:55:11.075Z,990.16
2023-04-25T09:56:11.066Z,990.21
2023-04-25T09:57:11.084Z,990.21
2023-04-25T09:58:11.056Z,990.20
2023-04-25T09:59:11.264Z,990.22
2023-04-25T10:00:11.047Z,990.23
2023-04-25T10:01:11.060Z,990.23
2023-04-25T10:02:11.080Z,990.28
2023-04-25T10:03:11.142Z,990.25
2023-04-25T10:04:11.102Z,990.28
2023-04-25T10:05:11.070Z,990.30
2023-04-25T10:06:10.987Z,990.33
2023-04-25T10:07:11.035Z,990.40
2023-04-25T10:08:10.982Z,990.35
2023-04-25T10:09:10.972Z,990.31
2023-04-25T10:10:10.968Z,990.34
2023-04-25T10:11:10.981Z,990.37
2023-04-25T10:12:11.985Z,990.34
2023-04-25T10:13:10.922Z,990.35
2023-04-25T10:14:11.928Z,990.33
2023-04-25T10:15:10.999Z,990.36
2023-04-25T10:16:10.974Z,990.39
2023-04-25T10:17:10.946Z,990.37
2023-04-25T10:18:10.935Z,990.39
2023-04-25T10:19:10.885Z,990.40
2023-04-25T10:20:10.880Z,990.42
2023-04-25T10:21:10.899Z,990.37
2023-04-25T10:22:10.890Z,990.38
2023-04-25T10:23:10.864Z,990.38
2023-04-25T10:24:10.854Z,990.43
2023-04-25T10:25:10.845Z,990.49
2023-04-25T10:26:10.830Z,990.51
2023-04-25T10:27:10.854Z,990.56
2023-04-25T10:28:10.821Z,990.53
2023-04-25T10:29:10.810Z,990.54
2023-04-25T10:30:10.807Z,990.56
2023-04-25T10:31:10.857Z,990.58
2023-04-25T10:32:10.836Z,990.58
2023-04-25T10:33:10.777Z,990.62
2023-04-25T10:34:10.774Z,990.60
2023-04-25T10:35:10.766Z,990.52
2023-04-25T10:36:10.754Z,990.65
2023-04-25T10:37:10.785Z,990.58
2023-04-25T10:38:10.952Z,990.63
2023-04-25T10:39:10.749Z,990.63
2023-04-25T10:40:10.726Z,990.64
2023-04-25T10:41:10.728Z,990.64
2023-04-25T10:42:10.747Z,990.68
2023-04-25T10:43:10.709Z,990.63
2023-04-25T10:44:10.710Z,990.78
2023-04-25T10:45:10.690Z,990.75
2023-04-25T10:46:10.723Z,990.81
2023-04-25T10:47:10.754Z,990.67
2023-04-25T10:48:10.733Z,990.72
2023-04-25T10:49:10.678Z,990.83
2023-04-25T10:50:10.650Z,990.75
2023-04-25T10:51:11.662Z,990.78
2023-04-25T10:52:10.671Z,990.77
2023-04-25T10:53:10.636Z,990.85
2023-04-25T10:54:10.688Z,990.88
2023-04-25T10:55:10.695Z,990.86
2023-04-25T10:56:11.878Z,990.80
2023-04-25T10:57:10.600Z,990.88
2023-04-25T10:58:10.631Z,990.95
2023-04-25T10:59:10.582Z,990.91
2023-04-25T11:00:10.598Z,990.91
2023-04-25T11:01:10.580Z,990.94
2023-04-25T11:02:10.787Z,990.93
2023-04-25T11:03:10.632Z,990.90
2023-04-25T11:04:10.755Z,990.81
2023-04-25T11:05:10.551Z,990.93
2023-04-25T11:06:10.537Z,990.95
2023-04-25T11:07:10.526Z,990.88
2023-04-25T11:08:11.359Z,990.88
2023-04-25T11:09:10.519Z,990.95
2023-04-25T11:10:10.525Z,990.93
2023-04-25T11:11:10.530Z,990.88
2023-04-25T11:12:10.525Z,990.89
2023-04-25T11:13:10.510Z,990.87
2023-04-25T11:14:10.486Z,990.88
2023-04-25T11:15:10.484Z,990.90
2023-04-25T11:16:13.188Z,990.89
2023-04-25T11:17:11.524Z,990.89
2023-04-25T11:18:10.540Z,990.90
2023-04-25T11:19:10.449Z,990.87
2023-04-25T11:20:10.434Z,990.98
2023-04-25T11:21:10.417Z,990.89
2023-04-25T11:22:10.418Z,990.82
2023-04-25T11:23:10.449Z,990.85
2023-04-25T11:24:10.399Z,990.82
2023-04-25T11:25:42.887Z,990.81
2023-04-25T11:26:10.400Z,990.86
2023-04-25T11:27:10.391Z,990.87
2023-04-25T11:28:10.387Z,990.84
2023-04-25T11:29:10.359Z,990.75
2023-04-25T11:30:10.360Z,990.82
2023-04-25T11:31:10.343Z,990.84
2023-04-25T11:32:10.367Z,990.85
2023-04-25T11:33:10.413Z,990.93
2023-04-25T11:34:10.307Z,990.84
2023-04-25T11:35:10.311Z,990.93
2023-04-25T11:36:10.308Z,990.87
2023-04-25T11:37:10.293Z,990.82
2023-04-25T11:38:10.319Z,990.85
2023-04-25T11:39:10.283Z,990.83
2023-04-25T11:40:10.272Z,990.82
2023-04-25T11:41:10.284Z,990.83
2023-04-25T11:42:10.648Z,990.81
2023-04-25T11:43:10.271Z,990.86
2023-04-25T11:44:10.246Z,990.85
2023-04-25T11:45:10.228Z,990.79
2023-04-25T11:46:10.285Z,990.82
2023-04-25T11:47:10.219Z,990.83
2023-04-25T11:48:10.299Z,990.86
2023-04-25T11:49:10.211Z,990.86
2023-04-25T11:50:10.202Z,990.84
2023-04-25T11:51:10.192Z,990.88
2023-04-25T11:52:10.182Z,990.80
2023-04-25T11:53:10.210Z,990.82
2023-04-25T11:54:10.172Z,990.87
2023-04-25T11:55:11.377Z,990.83
2023-04-25T11:56:10.145Z,990.85
2023-04-25T11:57:10.181Z,990.92
2023-04-25T11:58:10.160Z,990.89
2023-04-25T11:59:10.342Z,990.87
2023-04-25T12:00:10.182Z,990.88
2023-04-25T12:01:10.107Z,990.88
2023-04-25T12:02:10.151Z,990.91
2023-04-25T12:03:10.288Z,990.99
2023-04-25T12:05:22.165Z,990.98
2023-04-25T12:06:12.251Z,990.95
2023-04-25T12:07:10.065Z,990.99
2023-04-25T12:08:10.095Z,991.08
2023-04-25T12:09:10.048Z,991.02
2023-04-25T12:10:10.130Z,990.94
2023-04-25T12:11:10.075Z,991.04
2023-04-25T12:12:10.029Z,991.09
2023-04-25T12:13:10.125Z,991.19
2023-04-25T12:14:10.004Z,991.20
2023-04-25T12:15:11.080Z,991.14
2023-04-25T12:16:10.065Z,991.21
2023-04-25T12:17:10.000Z,991.21
2023-04-25T12:18:10.078Z,991.14
2023-04-25T12:19:09.974Z,991.20
2023-04-25T12:20:10.026Z,991.15
2023-04-25T12:21:09.960Z,991.23
2023-04-25T12:22:09.953Z,991.20
2023-04-25T12:23:09.978Z,991.29
2023-04-25T12:24:09.936Z,991.14
2023-04-25T12:25:09.931Z,991.32
2023-04-25T12:26:09.918Z,991.30
2023-04-25T12:27:09.933Z,991.20
2023-04-25T12:28:09.933Z,991.26
2023-04-25T12:29:09.911Z,991.17
2023-04-25T12:30:09.896Z,991.28